Time;durP1;ratioP1;P1;durP2;ratioP2;P2;SDS_P1;SDS_P2;PMS_P1;PMS_P2;Temp;Humidity;BMP_temperature;BMP_pressure;BME280_temperature;BME280_humidity;BME280_pressure;Samples;Min_cycle;Max_cycle;Signal;HPM_P1;HPM_P2
2023/02/24 00:02:04;;;;;;;21.73;13.18;;;;;;;8.31;100.00;98408.81;4913853;29;20024;-77
2023/02/24 00:04:34;;;;;;;23.77;13.75;;;;;;;8.30;100.00;98407.13;4913435;28;20036;-76
2023/02/24 00:07:01;;;;;;;21.35;14.32;;;;;;;8.30;100.00;98401.75;4914790;29;20208;-78
2023/02/24 00:09:28;;;;;;;25.75;13.98;;;;;;;8.26;100.00;98403.19;4929615;28;20115;-76
2023/02/24 00:12:03;;;;;;;28.55;14.95;;;;;;;8.19;100.00;98407.69;4915171;28;20036;-76
2023/02/24 00:14:34;;;;;;;25.10;14.38;;;;;;;8.10;100.00;98391.69;4912902;29;20020;-76
2023/02/24 00:17:00;;;;;;;23.67;15.32;;;;;;;8.05;100.00;98390.63;4913063;29;20032;-77
2023/02/24 00:19:28;;;;;;;34.15;16.38;;;;;;;8.06;100.00;98384.19;4913163;28;20478;-76
2023/02/24 00:21:53;;;;;;;29.23;16.17;;;;;;;8.13;100.00;98387.78;4914086;29;20036;-76
2023/02/24 00:24:22;;;;;;;26.00;16.13;;;;;;;8.10;100.00;98390.88;4912978;29;20098;-76
2023/02/24 00:26:53;;;;;;;25.77;14.68;;;;;;;8.05;100.00;98375.28;4918078;28;20028;-76
2023/02/24 00:29:19;;;;;;;23.80;14.68;;;;;;;8.17;100.00;98372.03;4910587;29;20044;-76
2023/02/24 00:31:45;;;;;;;25.95;15.50;;;;;;;8.06;100.00;98363.47;4928189;28;20484;-77
2023/02/24 00:34:11;;;;;;;25.80;15.20;;;;;;;8.16;100.00;98373.91;4944306;23;20019;-77
2023/02/24 00:36:37;;;;;;;29.40;14.18;;;;;;;8.25;100.00;98388.88;4927766;28;20115;-77
2023/02/24 00:39:09;;;;;;;23.17;13.23;;;;;;;8.15;100.00;98388.41;4929205;28;20547;-77
2023/02/24 00:41:43;;;;;;;26.17;14.02;;;;;;;8.15;100.00;98374.09;4924416;29;20034;-77
2023/02/24 00:44:12;;;;;;;28.15;14.73;;;;;;;7.86;100.00;98339.13;4931085;29;20035;-79
2023/02/24 00:46:40;;;;;;;19.70;13.18;;;;;;;8.13;100.00;98377.81;4924478;29;20023;-79
2023/02/24 00:49:11;;;;;;;21.07;13.50;;;;;;;8.09;100.00;98365.75;4920204;28;20093;-78
2023/02/24 00:51:38;;;;;;;21.27;12.70;;;;;;;8.20;100.00;98375.19;4913736;29;20276;-78
2023/02/24 00:54:04;;;;;;;23.13;13.13;;;;;;;8.13;100.00;98369.75;4931498;29;20027;-78
2023/02/24 00:56:30;;;;;;;24.05;13.45;;;;;;;8.17;100.00;98364.78;4931402;28;20031;-78
2023/02/24 00:58:58;;;;;;;23.33;13.80;;;;;;;8.18;100.00;98362.94;4931457;29;20063;-78
2023/02/24 01:01:28;;;;;;;27.45;14.02;;;;;;;8.27;100.00;98381.41;4934327;29;20076;-78
2023/02/24 01:03:56;;;;;;;23.52;13.63;;;;;;;8.19;100.00;98373.50;4934057;29;20066;-78
2023/02/24 01:06:24;;;;;;;24.67;14.35;;;;;;;8.10;100.00;98355.84;4926832;29;20024;-78
2023/02/24 01:08:52;;;;;;;27.85;13.88;;;;;;;8.12;100.00;98359.16;4949069;28;20088;-78
2023/02/24 01:14:13;;;;;;;27.08;14.55;;;;;;;8.07;100.00;98349.00;4935069;29;20401;-78
2023/02/24 01:16:49;;;;;;;28.08;14.93;;;;;;;8.06;100.00;98343.78;4930606;29;20035;-78
2023/02/24 01:19:16;;;;;;;30.15;15.18;;;;;;;8.06;100.00;98344.59;4914899;29;20461;-78
2023/02/24 01:21:41;;;;;;;25.25;13.95;;;;;;;8.01;100.00;98325.50;4919291;29;20047;-78
2023/02/24 01:24:07;;;;;;;23.15;13.82;;;;;;;8.15;100.00;98349.84;4944700;28;20059;-78
2023/02/24 01:26:32;;;;;;;24.35;13.82;;;;;;;7.95;100.00;98315.53;4968237;28;20515;-78
2023/02/24 01:28:57;;;;;;;22.27;13.60;;;;;;;8.09;100.00;98330.72;4928363;29;20047;-78
2023/02/24 01:31:23;;;;;;;24.35;14.30;;;;;;;8.17;100.00;98337.00;4933568;29;20499;-78
2023/02/24 01:33:49;;;;;;;24.30;14.40;;;;;;;8.13;100.00;98334.72;4934837;28;20085;-78
2023/02/24 01:36:19;;;;;;;25.40;14.15;;;;;;;8.19;100.00;98340.34;4935523;29;20038;-79
2023/02/24 01:38:44;;;;;;;;;;;;;;;8.18;100.00;98344.06;4919696;29;20036;-78
2023/02/24 01:41:15;;;;;;;24.20;12.13;;;;;;;8.20;100.00;98341.97;4930623;29;19911;-78
2023/02/24 01:44:10;;;;;;;24.00;14.02;;;;;;;8.20;100.00;98333.91;4924495;29;20036;-78
2023/02/24 01:46:40;;;;;;;22.98;12.65;;;;;;;8.17;100.00;98326.22;4919447;29;20035;-78
2023/02/24 01:49:07;;;;;;;25.00;14.57;;;;;;;8.12;100.00;98311.50;4930547;29;20058;-78
2023/02/24 01:51:37;;;;;;;27.17;14.07;;;;;;;8.17;100.00;98324.34;4933540;29;20477;-78
2023/02/24 01:54:04;;;;;;;25.67;13.38;;;;;;;8.01;100.00;98308.53;4933074;29;20055;-78
2023/02/24 01:56:31;;;;;;;29.52;14.30;;;;;;;7.89;100.00;98286.72;4925699;29;20028;-78
2023/02/24 01:58:57;;;;;;;30.90;14.65;;;;;;;7.99;100.00;98299.81;4933107;28;20028;-78
2023/02/24 02:01:23;;;;;;;25.05;14.40;;;;;;;8.03;100.00;98291.13;4915175;29;20035;-79
2023/02/24 02:03:48;;;;;;;21.77;13.23;;;;;;;8.09;100.00;98305.66;4932590;29;20396;-77
2023/02/24 02:06:16;;;;;;;23.33;13.55;;;;;;;8.05;100.00;98299.84;4930346;29;20090;-78
2023/02/24 02:08:42;;;;;;;25.45;13.57;;;;;;;7.99;100.00;98295.28;4934555;29;20103;-78
2023/02/24 02:11:11;;;;;;;31.05;13.77;;;;;;;8.11;100.00;98317.06;4933730;29;20594;-78
2023/02/24 02:13:43;;;;;;;27.95;13.68;;;;;;;7.99;100.00;98294.41;4925398;29;20020;-78
2023/02/24 02:16:25;;;;;;;24.55;13.27;;;;;;;8.08;100.00;98304.00;4959852;28;20036;-78
2023/02/24 02:19:10;;;;;;;24.42;13.90;;;;;;;8.03;100.00;98295.69;4939998;29;20046;-78
2023/02/24 02:21:54;;;;;;;24.45;13.98;;;;;;;8.08;100.00;98299.44;4927203;29;20027;-78
2023/02/24 02:24:31;;;;;;;32.47;14.60;;;;;;;8.01;100.00;98303.13;4933989;29;20024;-78
2023/02/24 02:27:19;;;;;;;26.83;13.60;;;;;;;8.03;100.00;98296.53;4939080;29;20032;-78
2023/02/24 02:29:55;;;;;;;30.88;14.93;;;;;;;8.03;100.00;98301.09;4930826;29;20050;-78
2023/02/24 02:33:00;;;;;;;24.67;14.68;;;;;;;7.96;100.00;98287.56;4913913;29;20090;-78
2023/02/24 02:35:35;;;;;;;30.25;14.75;;;;;;;7.99;100.00;98283.66;4922724;29;20059;-78
2023/02/24 02:38:24;;;;;;;26.48;13.73;;;;;;;7.95;100.00;98277.00;4922860;29;20028;-78
2023/02/24 02:41:12;;;;;;;28.73;14.70;;;;;;;7.98;100.00;98276.59;4929945;29;20480;-78
2023/02/24 02:43:45;;;;;;;29.80;13.88;;;;;;;7.99;100.00;98283.66;4923018;29;20420;-78
2023/02/24 02:46:38;;;;;;;28.42;15.10;;;;;;;7.86;100.00;98268.28;4927775;29;20035;-79
2023/02/24 02:49:16;;;;;;;30.75;15.77;;;;;;;7.71;100.00;98262.19;5014584;28;20033;-79
2023/02/24 02:51:50;;;;;;;32.65;15.82;;;;;;;7.57;100.00;98258.53;4913724;28;20024;-78
2023/02/24 02:54:26;;;;;;;36.38;16.17;;;;;;;7.56;100.00;98256.91;4933826;29;20043;-78
2023/02/24 02:57:08;;;;;;;39.05;17.40;;;;;;;7.75;100.00;98268.81;4930099;29;20036;-78
2023/02/24 02:59:36;;;;;;;29.35;15.63;;;;;;;7.76;100.00;98270.50;4925291;29;20412;-78
2023/02/24 03:02:13;;;;;;;34.97;16.25;;;;;;;7.81;100.00;98265.34;4935565;28;20028;-79
2023/02/24 03:05:00;;;;;;;31.52;16.30;;;;;;;7.82;100.00;98281.28;4931961;29;20032;-78
2023/02/24 03:07:33;;;;;;;34.05;15.70;;;;;;;7.73;100.00;98262.78;4930872;29;20038;-78
2023/02/24 03:10:08;;;;;;;31.80;16.77;;;;;;;7.64;100.00;98257.56;4917020;29;20070;-78
2023/02/24 03:12:36;;;;;;;35.30;16.48;;;;;;;7.42;100.00;98224.50;4922210;28;20032;-79
2023/02/24 03:15:09;;;;;;;33.58;16.83;;;;;;;7.68;100.00;98261.53;4915378;29;20032;-78
2023/02/24 03:17:39;;;;;;;35.45;17.80;;;;;;;7.65;100.00;98271.84;4924863;29;20110;-78
2023/02/24 03:20:45;;;;;;;33.67;17.38;;;;;;;7.63;100.00;98261.28;4932045;29;20034;-78
2023/02/24 03:23:17;;;;;;;31.25;15.98;;;;;;;7.72;100.00;98255.75;4932946;29;20031;-78
2023/02/24 03:25:52;;;;;;;36.42;16.27;;;;;;;7.78;100.00;98265.72;4933056;28;20031;-79
2023/02/24 03:28:27;;;;;;;33.03;17.27;;;;;;;7.76;100.00;98246.25;4925587;29;20028;-79
2023/02/24 03:31:09;;;;;;;34.83;16.35;;;;;;;7.82;100.00;98258.91;4931996;29;20093;-78
2023/02/24 03:33:43;;;;;;;31.70;16.08;;;;;;;7.79;100.00;98264.69;4932139;29;20047;-78
2023/02/24 03:36:13;;;;;;;33.58;16.05;;;;;;;7.74;100.00;98253.69;4924981;29;20544;-78
2023/02/24 03:38:41;;;;;;;33.47;16.67;;;;;;;7.76;100.00;98246.25;4925189;29;20034;-78
2023/02/24 03:41:10;;;;;;;29.38;15.90;;;;;;;7.79;100.00;98256.63;4958029;28;20039;-78
2023/02/24 03:43:43;;;;;;;26.48;14.20;;;;;;;7.64;100.00;98236.03;4931753;29;20035;-78
2023/02/24 03:46:09;;;;;;;32.97;16.27;;;;;;;7.77;100.00;98258.69;4930871;29;20027;-79
2023/02/24 03:48:42;;;;;;;29.27;15.82;;;;;;;7.64;100.00;98241.41;4929015;28;20094;-78
2023/02/24 03:51:14;;;;;;;30.80;15.55;;;;;;;7.60;100.00;98232.09;4918572;29;20022;-78
2023/02/24 03:53:46;;;;;;;31.63;16.95;;;;;;;7.55;100.00;98226.47;4919155;28;20048;-79
2023/02/24 03:56:30;;;;;;;37.80;15.98;;;;;;;7.67;100.00;98238.31;4932678;28;20082;-78
2023/02/24 03:59:11;;;;;;;30.38;15.13;;;;;;;7.57;100.00;98232.47;4913539;29;20123;-79
2023/02/24 04:01:54;;;;;;;33.05;15.35;;;;;;;7.58;100.00;98234.13;4913968;29;20020;-78
2023/02/24 04:04:35;;;;;;;38.72;16.88;;;;;;;7.57;100.00;98240.56;4937621;29;20030;-78
2023/02/24 04:07:29;;;;;;;38.45;16.13;;;;;;;7.60;100.00;98259.00;4928768;28;20028;-78
2023/02/24 04:10:04;;;;;;;36.75;15.70;;;;;;;7.58;100.00;98254.84;4919926;29;20028;-78
2023/02/24 04:12:33;;;;;;;35.13;16.35;;;;;;;7.55;100.00;98249.88;4913559;29;20028;-78
2023/02/24 04:15:11;;;;;;;32.50;16.50;;;;;;;7.48;100.00;98239.03;4918960;28;20024;-78
2023/02/24 04:17:49;;;;;;;39.88;16.60;;;;;;;7.59;100.00;98240.34;4928987;29;20032;-78
2023/02/24 04:20:19;;;;;;;33.05;16.55;;;;;;;7.53;100.00;98241.16;4929592;29;20028;-79
2023/02/24 04:22:58;;;;;;;35.38;17.23;;;;;;;7.48;100.00;98239.03;4920310;28;20047;-78
2023/02/24 04:25:25;;;;;;;36.63;17.10;;;;;;;7.42;100.00;98229.06;4923677;29;20042;-78
2023/02/24 04:27:59;;;;;;;36.58;16.92;;;;;;;7.50;100.00;98237.00;4926520;28;20036;-78
2023/02/24 04:30:29;;;;;;;32.78;17.13;;;;;;;7.45;100.00;98218.72;4934993;28;20031;-79
2023/02/24 04:32:55;;;;;;;39.58;17.58;;;;;;;7.47;100.00;98227.44;4934739;29;20023;-78
2023/02/24 04:35:21;;;;;;;39.00;17.67;;;;;;;7.52;100.00;98218.78;4931618;29;20095;-78
2023/02/24 04:37:49;;;;;;;38.63;17.38;;;;;;;7.60;100.00;98221.31;4926374;28;20085;-79
2023/02/24 04:40:16;;;;;;;35.50;17.40;;;;;;;7.62;100.00;98221.97;4924915;29;20032;-78
2023/02/24 04:42:45;;;;;;;42.67;18.08;;;;;;;7.61;100.00;98222.13;4932251;29;20082;-78
2023/02/24 04:45:31;;;;;;;39.10;18.17;;;;;;;7.57;100.00;98221.72;4931488;29;20497;-78
2023/02/24 04:48:01;;;;;;;35.08;17.48;;;;;;;7.60;100.00;98212.41;4933923;28;20036;-78
2023/02/24 04:50:30;;;;;;;37.13;17.10;;;;;;;7.33;100.00;98179.94;4932021;29;20529;-78
2023/02/24 04:52:59;;;;;;;40.70;19.70;;;;;;;7.36;100.00;98176.03;4943313;29;20552;-78
2023/02/24 04:55:28;;;;;;;43.05;19.20;;;;;;;7.53;100.00;98188.13;4944413;28;20042;-76
2023/02/24 04:57:54;;;;;;;39.50;18.48;;;;;;;7.58;100.00;98201.84;4929852;28;20031;-76
2023/02/24 05:00:21;;;;;;;39.75;17.88;;;;;;;7.51;100.00;98174.03;4970108;28;20444;-74
2023/02/24 05:02:51;;;;;;;42.22;19.08;;;;;;;7.59;100.00;98200.78;4927105;28;20027;-74
2023/02/24 05:05:32;;;;;;;40.33;18.88;;;;;;;7.59;100.00;98195.41;4944915;28;20041;-79
2023/02/24 05:08:03;;;;;;;41.63;18.80;;;;;;;7.64;100.00;98192.94;4930326;28;20488;-77
2023/02/24 05:10:34;;;;;;;42.40;18.70;;;;;;;7.56;100.00;98176.97;4939834;28;20028;-78
2023/02/24 05:13:00;;;;;;;44.65;19.80;;;;;;;7.44;100.00;98154.31;4952881;28;20094;-78
2023/02/24 05:15:30;;;;;;;43.80;19.23;;;;;;;7.55;100.00;98172.63;4927531;28;20040;-79
2023/02/24 05:17:58;;;;;;;38.47;19.08;;;;;;;7.24;100.00;98124.63;4935060;29;20408;-79
2023/02/24 05:23:10;;;;;;;40.40;19.40;;;;;;;7.63;100.00;98183.22;4928536;28;20066;-79
2023/02/24 05:26:07;;;;;;;38.10;18.33;;;;;;;7.60;100.00;98180.09;4955523;28;20023;-80
2023/02/24 05:28:34;;;;;;;41.10;17.95;;;;;;;7.49;100.00;98149.19;4947913;28;20045;-79
2023/02/24 05:31:18;;;;;;;44.28;19.45;;;;;;;7.44;100.00;98147.09;4948376;28;20061;-79
2023/02/24 05:33:47;;;;;;;43.20;19.80;;;;;;;7.45;100.00;98153.31;5012262;28;20025;-79
2023/02/24 05:36:17;;;;;;;48.05;20.48;;;;;;;7.17;100.00;98103.06;4992416;28;20028;-80
2023/02/24 05:38:52;;;;;;;48.83;19.92;;;;;;;7.51;100.00;98163.28;4945151;28;20036;-80
2023/02/24 05:41:21;;;;;;;44.92;19.58;;;;;;;7.48;100.00;98152.91;4948860;29;20028;-79
2023/02/24 05:43:53;;;;;;;41.33;18.33;;;;;;;7.49;100.00;98151.03;4934453;29;20031;-79
2023/02/24 05:46:48;;;;;;;49.05;19.88;;;;;;;7.62;100.00;98165.41;4935606;29;20031;-76
2023/02/24 05:49:22;;;;;;;38.70;17.45;;;;;;;7.39;100.00;98111.06;4960048;28;20060;-79
2023/02/24 05:51:55;;;;;;;40.58;19.38;;;;;;;7.61;100.00;98152.16;4991671;28;20036;-72
2023/02/24 05:54:22;;;;;;;38.35;18.40;;;;;;;7.55;100.00;98140.31;4933680;29;20105;-73
2023/02/24 05:56:48;;;;;;;41.67;18.48;;;;;;;7.54;100.00;98138.63;4930081;28;20046;-73
2023/02/24 05:59:20;;;;;;;42.67;19.30;;;;;;;7.62;100.00;98145.72;4938669;28;20031;-72
2023/02/24 06:02:07;;;;;;;42.47;19.45;;;;;;;7.62;100.00;98143.03;4972105;28;20029;-78
2023/02/24 06:04:39;;;;;;;46.35;20.30;;;;;;;7.60;100.00;98140.56;4939587;28;20126;-79
2023/02/24 06:07:13;;;;;;;40.88;19.08;;;;;;;7.60;100.00;98151.31;4936382;28;20106;-79
2023/02/24 06:09:41;;;;;;;40.75;19.65;;;;;;;7.55;100.00;98136.81;4943898;28;20087;-79
2023/02/24 06:12:07;;;;;;;46.30;20.80;;;;;;;7.53;100.00;98134.31;4943309;28;20042;-80
2023/02/24 06:14:33;;;;;;;42.83;20.15;;;;;;;7.56;100.00;98122.31;4938772;28;20033;-79
2023/02/24 06:17:01;;;;;;;47.03;20.23;;;;;;;7.55;100.00;98124.16;4941774;28;20034;-77
2023/02/24 06:19:26;;;;;;;49.03;20.90;;;;;;;7.65;100.00;98132.72;4925483;28;20032;-75
2023/02/24 06:21:52;;;;;;;46.10;19.98;;;;;;;7.70;100.00;98126.69;4935349;28;20042;-76
2023/02/24 06:24:18;;;;;;;49.97;20.33;;;;;;;7.73;100.00;98129.00;4926312;29;20036;-75
2023/02/24 06:26:44;;;;;;;50.97;21.23;;;;;;;7.72;100.00;98129.19;4914616;28;20047;-75
2023/02/24 06:29:12;;;;;;;52.05;22.52;;;;;;;7.65;100.00;98104.94;4915775;29;20444;-73
2023/02/24 06:31:38;;;;;;;49.45;21.30;;;;;;;7.69;100.00;98111.59;4931076;29;20518;-73
2023/02/24 06:34:03;;;;;;;48.97;21.98;;;;;;;7.57;100.00;98108.66;4929184;29;20032;-71
2023/02/24 06:36:28;;;;;;;45.65;21.98;;;;;;;7.72;100.00;98123.81;4949656;22;20474;-63
2023/02/24 06:38:54;;;;;;;46.72;21.15;;;;;;;7.70;100.00;98115.94;4947941;28;20035;-63
2023/02/24 06:41:21;;;;;;;58.15;23.83;;;;;;;7.73;100.00;98118.25;4926073;28;20036;-63
2023/02/24 06:43:47;;;;;;;47.53;21.38;;;;;;;7.76;100.00;98117.84;4930595;28;20028;-63
2023/02/24 06:46:14;;;;;;;45.08;20.42;;;;;;;7.78;100.00;98112.22;4921694;28;20039;-64
2023/02/24 06:48:40;;;;;;;45.03;19.95;;;;;;;7.84;100.00;98114.13;4909355;28;20032;-67
2023/02/24 06:51:14;;;;;;;56.22;23.92;;;;;;;7.83;100.00;98104.38;4909169;28;20487;-65
2023/02/24 06:53:43;;;;;;;47.97;20.80;;;;;;;7.88;100.00;98102.72;4923153;28;20020;-64
2023/02/24 06:56:13;;;;;;;47.95;21.13;;;;;;;7.94;100.00;98108.34;4906767;28;20487;-64
2023/02/24 06:58:42;;;;;;;51.38;21.73;;;;;;;7.96;100.00;98111.66;4911401;28;20040;-64
2023/02/24 07:01:16;;;;;;;48.65;20.95;;;;;;;8.02;100.00;98105.47;4911826;28;20460;-64
2023/02/24 07:04:01;;;;;;;52.78;22.70;;;;;;;8.03;100.00;98101.75;4955669;28;20028;-64
2023/02/24 07:06:33;;;;;;;49.70;22.52;;;;;;;8.04;100.00;98098.84;4907823;28;20149;-63
2023/02/24 07:09:00;;;;;;;52.25;22.05;;;;;;;8.01;100.00;98096.53;4906739;28;20131;-64
2023/02/24 07:11:27;;;;;;;49.88;22.73;;;;;;;8.05;100.00;98095.09;4941176;28;20023;-63
2023/02/24 07:13:53;;;;;;;45.85;21.13;;;;;;;8.06;100.00;98102.16;4897743;28;20122;-63
2023/02/24 07:16:23;;;;;;;53.75;21.48;;;;;;;8.09;100.00;98087.44;4897183;28;20144;-63
2023/02/24 07:18:53;;;;;;;49.08;21.70;;;;;;;8.15;100.00;98093.88;4897920;29;20028;-64
2023/02/24 07:21:22;;;;;;;;;;;;;;;8.18;100.00;98088.09;4911625;28;20034;-64
2023/02/24 07:23:48;;;;;;;48.90;20.10;;;;;;;8.14;100.00;98093.03;4922440;28;20435;-61
2023/02/24 07:26:21;;;;;;;44.90;20.05;;;;;;;8.10;100.00;98079.16;4924170;28;20582;-61
2023/02/24 07:28:47;;;;;;;48.55;19.73;;;;;;;8.05;100.00;98084.34;4934889;28;20521;-62
2023/02/24 07:31:18;;;;;;;46.88;19.90;;;;;;;8.11;100.00;98079.97;4981583;28;20108;-64
2023/02/24 07:33:45;;;;;;;51.75;20.63;;;;;;;8.11;100.00;98071.91;4916993;29;20021;-65
2023/02/24 07:36:13;;;;;;;46.65;19.38;;;;;;;8.13;100.00;98075.22;4916605;28;20048;-63
2023/02/24 07:38:54;;;;;;;48.55;19.70;;;;;;;8.13;100.00;98073.34;4917901;28;20493;-64
2023/02/24 07:41:21;;;;;;;51.47;21.25;;;;;;;8.02;100.00;98057.81;4910871;28;20472;-64
2023/02/24 07:43:51;;;;;;;52.38;21.13;;;;;;;8.03;100.00;98061.31;4913010;28;20501;-63
2023/02/24 07:46:21;;;;;;;47.00;20.27;;;;;;;8.05;100.00;98060.09;4921626;28;20375;-63
2023/02/24 07:48:46;;;;;;;47.65;20.38;;;;;;;7.98;100.00;98067.31;4908447;28;20082;-63
2023/02/24 07:51:15;;;;;;;53.70;20.88;;;;;;;7.98;100.00;98061.94;4910780;28;20395;-63
2023/02/24 07:53:41;;;;;;;47.90;19.70;;;;;;;7.87;100.00;98059.84;4905059;28;20029;-64
2023/02/24 07:56:12;;;;;;;59.67;21.48;;;;;;;7.85;100.00;98062.75;4905977;28;20308;-63
2023/02/24 07:58:41;;;;;;;51.72;20.73;;;;;;;7.89;100.00;98055.09;4899151;28;20037;-63
2023/02/24 08:01:07;;;;;;;65.97;22.05;;;;;;;7.79;100.00;98057.34;4922764;28;20456;-63
2023/02/24 08:03:40;;;;;;;56.90;21.63;;;;;;;7.72;100.00;98059.19;4911410;28;20495;-63
2023/02/24 08:06:14;;;;;;;61.90;22.38;;;;;;;7.70;100.00;98064.78;4909357;28;20519;-63
2023/02/24 08:08:56;;;;;;;58.30;22.13;;;;;;;7.74;100.00;98059.81;4902092;28;20124;-63
2023/02/24 08:11:34;;;;;;;68.18;23.25;;;;;;;7.79;100.00;98065.44;4901502;28;20037;-63
2023/02/24 08:14:03;;;;;;;62.90;22.92;;;;;;;7.87;100.00;98055.28;4899910;28;20396;-64
2023/02/24 08:16:41;;;;;;;64.55;23.48;;;;;;;7.96;100.00;98047.84;4947472;28;20047;-64
2023/02/24 08:19:12;;;;;;;62.20;23.25;;;;;;;8.05;100.00;98054.69;4935713;28;20032;-63
2023/02/24 08:21:46;;;;;;;67.53;23.65;;;;;;;8.03;100.00;98047.84;4920582;29;20020;-63
2023/02/24 08:24:16;;;;;;;64.60;24.38;;;;;;;7.99;100.00;98046.59;4909997;29;20115;-63
2023/02/24 08:27:03;;;;;;;70.47;24.75;;;;;;;8.04;100.00;98046.81;4897769;28;20058;-63
2023/02/24 08:32:42;;;;;;;62.88;22.98;;;;;;;8.00;100.00;98043.72;4903805;28;20034;-63
2023/02/24 08:35:13;;;;;;;68.97;24.23;;;;;;;8.15;100.00;98040.84;4908125;28;20059;-64
2023/02/24 08:37:45;;;;;;;63.25;24.00;;;;;;;8.09;100.00;98041.63;4916638;28;20036;-63
2023/02/24 08:43:16;;;;;;;61.67;24.00;;;;;;;7.99;100.00;98038.50;4902209;28;20135;-63
2023/02/24 08:45:55;;;;;;;68.75;23.30;;;;;;;7.89;100.00;98036.25;4894512;29;20439;-63
2023/02/24 08:48:25;;;;;;;;;;;;;;;7.96;100.00;98034.38;4927904;29;20463;-64
2023/02/24 08:50:53;;;;;;;80.53;25.52;;;;;;;7.97;100.00;98035.22;4907859;28;19919;-63
2023/02/24 08:53:19;;;;;;;72.63;24.65;;;;;;;8.22;100.00;98027.34;4907627;29;20094;-70
2023/02/24 08:55:50;;;;;;;75.00;26.10;;;;;;;8.27;100.00;98023.00;4906033;28;20118;-70
2023/02/24 08:58:17;;;;;;;91.30;30.20;;;;;;;8.28;100.00;98021.97;4911522;29;20028;-70
2023/02/24 09:00:48;;;;;;;76.55;25.75;;;;;;;8.44;100.00;98020.75;4905988;28;20140;-70
2023/02/24 09:03:27;;;;;;;86.82;29.23;;;;;;;8.46;100.00;98013.28;4901683;28;20029;-71
2023/02/24 09:06:03;;;;;;;71.55;26.48;;;;;;;8.52;100.00;98008.91;4930429;28;20032;-71
2023/02/24 09:08:37;;;;;;;72.63;25.95;;;;;;;8.50;100.00;98006.41;4909464;29;20036;-71
2023/02/24 09:11:06;;;;;;;84.97;30.63;;;;;;;8.48;100.00;98010.38;4906493;28;20166;-71
2023/02/24 09:13:50;;;;;;;77.68;25.83;;;;;;;8.52;100.00;98006.22;4909035;29;20111;-71
2023/02/24 09:16:17;;;;;;;55.00;21.65;;;;;;;8.46;100.00;97998.94;4913136;28;20166;-71
2023/02/24 09:18:43;;;;;;;57.60;21.67;;;;;;;8.40;100.00;98000.63;4914628;28;20028;-72
2023/02/24 09:24:02;;;;;;;57.30;19.45;;;;;;;8.38;100.00;97991.06;4940001;28;20039;-73
2023/02/24 09:26:41;;;;;;;51.58;18.25;;;;;;;8.45;100.00;97987.34;4911349;28;20098;-73
2023/02/24 09:29:32;;;;;;;55.97;19.98;;;;;;;8.28;100.00;97967.25;4929214;23;20042;-72
2023/02/24 09:32:03;;;;;;;48.35;19.23;;;;;;;8.39;100.00;97982.81;4971401;28;20086;-80
2023/02/24 09:34:54;;;;;;;52.80;18.15;;;;;;;8.32;100.00;97992.72;4973780;28;20012;-78
2023/02/24 09:38:04;;;;;;;46.22;18.25;;;;;;;8.06;100.00;97988.19;4976904;29;20038;-77
2023/02/24 09:40:38;;;;;;;52.70;18.83;;;;;;;8.01;100.00;97979.88;4989631;28;20114;-78
2023/02/24 09:43:23;;;;;;;50.75;18.65;;;;;;;8.16;100.00;97982.38;4962477;28;20054;-79
2023/02/24 09:45:59;;;;;;;50.00;18.13;;;;;;;8.22;100.00;97987.75;4953343;29;20027;-77
2023/02/24 09:49:11;;;;;;;51.58;19.10;;;;;;;8.28;100.00;97984.25;4955050;29;20051;-76
2023/02/24 09:51:41;;;;;;;47.88;18.42;;;;;;;8.47;100.00;97969.09;5012799;28;20033;-75
2023/02/24 09:54:15;;;;;;;55.85;20.48;;;;;;;8.46;100.00;97972.84;4999403;28;20102;-76
2023/02/24 09:57:06;;;;;;;56.90;19.35;;;;;;;8.35;100.00;97959.97;4962056;28;20377;-76
2023/02/24 09:59:38;;;;;;;57.45;19.80;;;;;;;8.52;100.00;97966.59;4949406;29;20019;-76
2023/02/24 10:02:32;;;;;;;58.97;19.95;;;;;;;8.61;100.00;97967.19;4951338;29;20057;-77
2023/02/24 10:05:18;;;;;;;62.78;21.30;;;;;;;8.66;100.00;97955.78;4935378;29;20404;-77
2023/02/24 10:07:45;;;;;;;58.90;22.20;;;;;;;8.76;100.00;97953.47;4940074;29;20129;-76
2023/02/24 10:10:29;;;;;;;77.78;25.10;;;;;;;8.62;100.00;97960.78;4952699;28;20441;-76
2023/02/24 10:13:28;;;;;;;59.03;20.80;;;;;;;8.75;100.00;97946.41;4954071;29;20118;-74
2023/02/24 10:18:31;;;;;;;57.65;20.83;;;;;;;9.17;100.00;97950.41;4944603;29;20029;-75
2023/02/24 10:21:17;;;;;;;63.88;21.73;;;;;;;9.16;100.00;97946.03;4943751;28;20059;-74
2023/02/24 10:24:06;;;;;;;56.13;20.05;;;;;;;9.24;100.00;97953.06;4940474;28;20031;-74
2023/02/24 10:26:43;;;;;;;63.53;21.58;;;;;;;9.21;100.00;97931.91;4957385;28;20549;-74
2023/02/24 10:29:42;;;;;;;55.22;20.83;;;;;;;9.08;100.00;97935.50;4949024;28;20396;-76
2023/02/24 10:32:32;;;;;;;58.38;21.27;;;;;;;9.16;100.00;97937.13;4948510;29;20043;-75
2023/02/24 10:34:58;;;;;;;57.88;20.05;;;;;;;9.21;100.00;97937.28;4939833;28;20016;-77
2023/02/24 10:37:27;;;;;;;63.25;20.95;;;;;;;9.19;100.00;97933.97;4946026;28;20054;-72
2023/02/24 10:39:56;;;;;;;56.85;21.20;;;;;;;9.27;100.00;97933.72;4946347;28;20051;-72
2023/02/24 10:42:30;;;;;;;63.05;20.30;;;;;;;9.28;100.00;97931.88;4967656;28;20060;-77
2023/02/24 10:45:24;;;;;;;59.05;21.38;;;;;;;9.31;100.00;97928.75;4946601;28;20038;-76
2023/02/24 10:47:57;;;;;;;63.13;21.05;;;;;;;9.24;100.00;97928.75;4935022;29;20051;-75
2023/02/24 10:50:27;;;;;;;60.78;21.38;;;;;;;9.14;100.00;97915.75;4952106;28;20035;-74
2023/02/24 10:58:06;;;;;;;56.55;20.98;;;;;;;9.64;100.00;97909.59;4946496;28;20031;-72
2023/02/24 11:03:40;;;;;;;53.38;19.00;;;;;;;9.75;100.00;97898.09;4951056;28;20503;-73
2023/02/24 11:18:24;;;;;;;46.40;18.38;;;;;;;10.21;100.00;97863.59;5031081;28;20032;-73
2023/02/24 11:21:05;;;;;;;48.05;18.02;;;;;;;10.26;100.00;97867.25;5028458;28;20033;-73
2023/02/24 11:23:34;;;;;;;46.45;18.67;;;;;;;10.28;100.00;97857.09;4973788;28;20040;-74
2023/02/24 11:26:21;;;;;;;46.83;18.88;;;;;;;10.35;100.00;97858.88;4946470;28;20031;-74
2023/02/24 11:29:24;;;;;;;51.28;18.52;;;;;;;10.39;100.00;97849.28;4943847;28;20044;-72
2023/02/24 11:32:10;;;;;;;39.72;16.98;;;;;;;10.42;100.00;97835.31;4933666;29;20035;-72
2023/02/24 11:34:38;;;;;;;42.70;18.05;;;;;;;10.74;100.00;97828.66;4986978;28;20019;-72
2023/02/24 11:37:36;;;;;;;37.38;16.05;;;;;;;10.80;100.00;97823.41;4945693;28;20027;-72
2023/02/24 11:40:22;;;;;;;42.77;17.20;;;;;;;10.85;100.00;97815.44;4943366;28;20027;-72
2023/02/24 11:42:55;;;;;;;43.70;16.98;;;;;;;10.79;100.00;97814.44;4940579;29;20267;-72
2023/02/24 11:45:32;;;;;;;43.25;17.35;;;;;;;10.78;100.00;97806.56;4946928;28;20031;-72
2023/02/24 11:48:20;;;;;;;39.20;17.30;;;;;;;10.72;100.00;97816.44;4941095;28;20031;-73
2023/02/24 11:50:52;;;;;;;44.17;17.33;;;;;;;10.57;100.00;97806.00;4941940;28;20090;-72
2023/02/24 11:53:33;;;;;;;50.15;18.27;;;;;;;10.35;100.00;97796.69;4941827;29;20031;-72
2023/02/24 11:56:08;;;;;;;48.00;18.13;;;;;;;10.26;100.00;97794.28;4940003;28;20035;-72
2023/02/24 11:58:45;;;;;;;42.03;17.10;;;;;;;10.40;100.00;97780.63;4945842;28;20031;-73
2023/02/24 12:01:22;;;;;;;58.50;18.92;;;;;;;10.43;100.00;97777.50;4964586;29;20046;-72
2023/02/24 12:03:49;;;;;;;48.35;16.70;;;;;;;10.43;100.00;97772.91;4960481;28;20062;-73
2023/02/24 12:06:21;;;;;;;42.20;17.45;;;;;;;11.09;100.00;97749.47;4975781;28;20045;-72
2023/02/24 12:08:52;;;;;;;42.10;16.13;;;;;;;11.44;100.00;97754.09;4960293;28;20106;-72
2023/02/24 12:11:28;;;;;;;39.38;15.07;;;;;;;11.74;100.00;97747.75;4958314;28;20055;-72
2023/02/24 12:14:29;;;;;;;36.50;15.10;;;;;;;12.67;100.00;97710.59;4967650;28;20027;-72
2023/02/24 12:17:09;;;;;;;41.95;14.57;;;;;;;15.50;100.00;97703.88;4963113;28;20031;-72
2023/02/24 12:19:50;;;;;;;31.90;14.65;;;;;;;18.59;94.97;97693.78;4962985;28;20449;-73
2023/02/24 12:22:16;;;;;;;30.30;14.80;;;;;;;19.45;84.27;97708.00;4953786;28;20067;-77
2023/02/24 12:24:48;;;;;;;28.92;14.32;;;;;;;17.64;100.00;97715.72;4965348;28;20055;-74